createdAt,value
2023-04-30T00:01:33.731Z,12.99
2023-04-30T00:06:35.928Z,12.72
2023-04-30T00:11:38.103Z,12.41
2023-04-30T00:16:41.808Z,11.75
2023-04-30T00:21:44.014Z,11.41
2023-04-30T00:26:46.092Z,11.08
2023-04-30T00:31:49.029Z,11.05
2023-04-30T00:36:51.385Z,10.89
2023-04-30T00:41:53.528Z,10.83
2023-04-30T00:46:55.934Z,10.73
2023-04-30T00:51:58.168Z,10.68
2023-04-30T00:57:00.597Z,10.55
2023-04-30T01:02:03.475Z,10.50
2023-04-30T01:07:06.321Z,10.66
2023-04-30T01:12:21.356Z,10.90
2023-04-30T01:17:39.383Z,11.16
2023-04-30T01:22:47.666Z,11.10
2023-04-30T01:28:01.693Z,11.20
2023-04-30T01:33:04.083Z,11.13
2023-04-30T01:38:43.870Z,11.08
2023-04-30T01:44:07.755Z,11.27
2023-04-30T01:49:27.362Z,11.35
2023-04-30T01:54:45.512Z,11.35
2023-04-30T01:59:47.877Z,11.44
2023-04-30T02:04:50.062Z,11.51
2023-04-30T02:09:52.262Z,11.54
2023-04-30T02:14:54.482Z,11.67
2023-04-30T02:19:57.067Z,11.61
2023-04-30T02:24:59.220Z,11.40
2023-04-30T02:30:01.739Z,11.09
2023-04-30T02:35:04.249Z,10.92
2023-04-30T02:40:07.344Z,10.67
2023-04-30T02:45:09.914Z,10.85
2023-04-30T02:50:12.047Z,10.85
2023-04-30T02:55:14.237Z,11.01
2023-04-30T03:00:17.291Z,11.19
2023-04-30T03:05:19.433Z,11.33
2023-04-30T03:10:21.590Z,11.27
2023-04-30T03:15:23.788Z,11.24
2023-04-30T03:20:26.456Z,11.39
2023-04-30T03:25:28.669Z,11.51
2023-04-30T03:30:30.980Z,11.74
2023-04-30T03:35:34.253Z,11.65
2023-04-30T03:40:36.436Z,11.76
2023-04-30T03:45:38.638Z,11.62
2023-04-30T03:50:40.796Z,11.76
2023-04-30T03:55:46.186Z,11.93
2023-04-30T04:00:48.670Z,12.06
2023-04-30T04:05:51.524Z,12.10
2023-04-30T04:10:53.709Z,12.13
2023-04-30T04:15:55.844Z,12.05
2023-04-30T04:20:58.094Z,11.98
2023-04-30T04:26:00.411Z,12.09
2023-04-30T04:31:03.320Z,12.02
2023-04-30T04:36:05.682Z,12.02
2023-04-30T04:41:07.833Z,11.97
2023-04-30T04:46:12.977Z,12.07
2023-04-30T04:51:16.517Z,12.05
2023-04-30T04:56:18.697Z,12.06
2023-04-30T05:01:21.379Z,12.02
2023-04-30T05:06:23.653Z,11.74
2023-04-30T05:11:25.826Z,11.55
2023-04-30T05:16:28.028Z,11.52
2023-04-30T05:21:32.178Z,11.45
2023-04-30T05:26:34.442Z,11.51
2023-04-30T05:31:37.010Z,11.67
2023-04-30T05:36:39.251Z,11.71
2023-04-30T05:41:41.418Z,11.80
2023-04-30T05:46:43.665Z,11.92
2023-04-30T05:51:45.844Z,12.03
2023-04-30T05:56:48.029Z,12.18
2023-04-30T06:01:50.279Z,12.24
2023-04-30T06:06:52.462Z,12.29
2023-04-30T06:11:55.919Z,12.49
2023-04-30T06:16:58.155Z,12.54
2023-04-30T06:22:00.377Z,12.64
2023-04-30T06:27:03.416Z,12.69
2023-04-30T06:32:08.180Z,12.80
2023-04-30T06:37:10.664Z,12.90
2023-04-30T06:42:12.869Z,13.09
2023-04-30T06:47:15.120Z,13.32
2023-04-30T06:52:17.282Z,13.49
2023-04-30T06:57:19.477Z,13.62
2023-04-30T07:02:22.507Z,13.67
2023-04-30T07:07:24.749Z,13.80
2023-04-30T07:12:26.955Z,14.05
2023-04-30T07:17:29.468Z,14.03
2023-04-30T07:22:32.309Z,14.25
2023-04-30T07:27:34.544Z,14.65
2023-04-30T07:32:37.614Z,14.86
2023-04-30T07:37:41.236Z,15.17
2023-04-30T07:42:45.127Z,15.69
2023-04-30T07:47:47.779Z,16.86
2023-04-30T07:52:50.754Z,17.98
2023-04-30T07:57:53.469Z,18.56
2023-04-30T08:02:55.758Z,18.61
2023-04-30T08:07:58.053Z,19.81
2023-04-30T08:13:00.345Z,19.75
2023-04-30T08:18:03.136Z,20.76
2023-04-30T08:23:05.847Z,20.72
2023-04-30T08:28:08.032Z,22.21
2023-04-30T08:33:10.722Z,23.60
2023-04-30T08:38:13.471Z,24.53
2023-04-30T08:43:16.664Z,25.92
2023-04-30T08:48:21.308Z,25.80
2023-04-30T08:53:23.681Z,25.78
2023-04-30T08:58:25.917Z,21.49
2023-04-30T09:03:28.728Z,20.80
2023-04-30T09:08:45.266Z,24.69
2023-04-30T09:13:47.463Z,27.74
2023-04-30T09:18:50.499Z,29.25
2023-04-30T09:23:58.418Z,25.53
2023-04-30T09:29:01.706Z,27.45
2023-04-30T09:34:04.723Z,28.55
2023-04-30T09:39:09.871Z,29.80
2023-04-30T09:44:36.788Z,28.75
2023-04-30T09:49:42.086Z,30.69
2023-04-30T09:54:45.950Z,29.90
2023-04-30T09:59:49.159Z,26.88
2023-04-30T10:04:56.389Z,26.70
2023-04-30T10:10:09.346Z,25.85
2023-04-30T10:15:24.772Z,23.84
2023-04-30T10:20:30.000Z,25.02
2023-04-30T10:25:33.093Z,24.81
2023-04-30T10:30:36.350Z,22.86
2023-04-30T10:35:45.734Z,22.38
2023-04-30T10:40:48.369Z,22.72
2023-04-30T10:45:50.662Z,22.96
2023-04-30T10:50:56.664Z,25.61
2023-04-30T10:56:09.526Z,25.69
2023-04-30T11:01:14.827Z,25.61
2023-04-30T11:06:20.819Z,30.31
2023-04-30T11:11:23.963Z,30.09
2023-04-30T11:16:30.919Z,29.86
2023-04-30T11:21:34.199Z,32.01
2023-04-30T11:27:15.259Z,31.43
2023-04-30T11:32:23.088Z,31.09
2023-04-30T11:37:35.001Z,31.35
2023-04-30T11:42:44.883Z,30.45
2023-04-30T11:47:54.107Z,31.25
2023-04-30T11:53:00.199Z,30.34
2023-04-30T11:58:02.421Z,27.26
2023-04-30T12:03:04.927Z,29.48
2023-04-30T12:08:09.400Z,31.68
2023-04-30T12:13:16.817Z,30.78
2023-04-30T12:18:18.965Z,33.89
2023-04-30T12:23:21.566Z,32.09
2023-04-30T12:28:24.213Z,32.16
2023-04-30T12:33:31.126Z,34.66
2023-04-30T12:38:33.350Z,32.68
2023-04-30T12:43:35.699Z,33.32
2023-04-30T12:48:45.559Z,28.32
2023-04-30T12:53:47.868Z,27.04
2023-04-30T12:58:51.222Z,34.22
2023-04-30T13:03:54.176Z,32.18
2023-04-30T13:08:58.829Z,33.08
2023-04-30T13:14:01.324Z,31.76
2023-04-30T13:19:05.174Z,33.53
2023-04-30T13:24:07.501Z,31.13
2023-04-30T13:29:10.208Z,27.47
2023-04-30T13:34:12.410Z,30.10
2023-04-30T13:39:14.907Z,26.39
2023-04-30T13:44:17.302Z,24.18
2023-04-30T13:49:19.456Z,25.44
2023-04-30T13:54:21.939Z,24.06
2023-04-30T13:59:24.110Z,23.82
2023-04-30T14:04:26.355Z,23.68
2023-04-30T14:09:29.370Z,27.41
2023-04-30T14:14:31.607Z,27.15
2023-04-30T14:19:33.896Z,27.56
2023-04-30T14:24:36.453Z,29.25
2023-04-30T14:29:38.604Z,29.38
2023-04-30T14:34:40.759Z,27.19
2023-04-30T14:39:43.935Z,25.73
2023-04-30T14:44:46.289Z,23.39
2023-04-30T14:49:50.295Z,22.38
2023-04-30T14:54:52.705Z,21.94
2023-04-30T14:59:57.783Z,21.34
2023-04-30T15:05:00.065Z,20.74
2023-04-30T15:10:02.921Z,20.40
2023-04-30T15:15:05.538Z,19.87
2023-04-30T15:20:08.850Z,19.61
2023-04-30T15:25:11.058Z,19.38
2023-04-30T15:30:13.384Z,19.27
2023-04-30T15:35:15.669Z,18.97
2023-04-30T15:40:17.957Z,18.88
2023-04-30T15:45:20.834Z,18.49
2023-04-30T15:50:22.987Z,18.29
2023-04-30T15:55:25.591Z,18.17
2023-04-30T16:00:28.752Z,18.07
2023-04-30T16:05:31.565Z,17.72
2023-04-30T16:10:33.826Z,17.42
2023-04-30T16:15:36.062Z,17.13
2023-04-30T16:20:39.088Z,16.96
2023-04-30T16:25:44.664Z,16.65
2023-04-30T16:30:46.964Z,16.59
2023-04-30T16:35:49.114Z,16.48
2023-04-30T16:40:51.384Z,16.33
2023-04-30T16:45:56.614Z,16.13
2023-04-30T16:50:58.883Z,15.88
2023-04-30T16:56:01.165Z,15.24
2023-04-30T17:01:03.630Z,15.09
2023-04-30T17:06:06.890Z,15.01
2023-04-30T17:11:09.664Z,15.00
2023-04-30T17:16:11.921Z,14.97
2023-04-30T17:21:14.797Z,14.94
2023-04-30T17:26:18.345Z,14.90
2023-04-30T17:31:20.766Z,14.96
2023-04-30T17:36:24.752Z,14.90
2023-04-30T17:41:27.056Z,15.03
2023-04-30T17:46:29.196Z,14.97
2023-04-30T17:51:34.426Z,14.87
2023-04-30T17:56:36.679Z,14.97
2023-04-30T18:01:38.915Z,15.05
2023-04-30T18:06:41.096Z,15.12
2023-04-30T18:11:43.378Z,15.01
2023-04-30T18:16:46.042Z,15.05
2023-04-30T18:21:48.300Z,15.15
2023-04-30T18:26:50.856Z,14.98
2023-04-30T18:31:53.386Z,15.00
2023-04-30T18:36:55.814Z,15.03
2023-04-30T18:41:58.240Z,14.95
2023-04-30T18:47:00.528Z,14.78
2023-04-30T18:52:02.918Z,14.70
2023-04-30T18:57:05.889Z,14.47
2023-04-30T19:02:08.216Z,14.38
2023-04-30T19:07:11.713Z,14.21
2023-04-30T19:12:15.124Z,14.14
2023-04-30T19:17:20.185Z,13.82
2023-04-30T19:22:23.861Z,13.51
2023-04-30T19:27:26.197Z,13.06
2023-04-30T19:32:28.346Z,12.75
2023-04-30T19:37:31.180Z,12.69
2023-04-30T19:42:33.974Z,12.50
2023-04-30T19:47:38.102Z,12.39
2023-04-30T19:52:40.382Z,12.27
2023-04-30T19:57:42.661Z,12.11
2023-04-30T20:02:45.089Z,12.11
2023-04-30T20:07:48.115Z,12.05
2023-04-30T20:12:54.493Z,11.95
2023-04-30T20:17:56.789Z,12.02
2023-04-30T20:22:59.197Z,11.91
2023-04-30T20:28:01.418Z,11.84
2023-04-30T20:33:04.229Z,11.72
2023-04-30T20:38:06.574Z,11.72
2023-04-30T20:43:11.131Z,11.58
2023-04-30T20:48:14.128Z,11.60
2023-04-30T20:53:16.577Z,11.67
2023-04-30T20:58:18.835Z,11.53
2023-04-30T21:03:21.134Z,11.46
2023-04-30T21:08:23.567Z,11.44
2023-04-30T21:13:25.788Z,11.30
2023-04-30T21:18:28.150Z,11.20
2023-04-30T21:23:31.183Z,11.21
2023-04-30T21:28:34.206Z,11.26
2023-04-30T21:33:38.057Z,11.23
2023-04-30T21:38:40.207Z,11.07
2023-04-30T21:43:43.265Z,11.17
2023-04-30T21:48:48.365Z,11.17
2023-04-30T21:53:50.820Z,11.36
2023-04-30T21:58:53.009Z,11.09
2023-04-30T22:03:55.616Z,11.13
2023-04-30T22:08:57.801Z,11.16
2023-04-30T22:13:59.959Z,10.94
2023-04-30T22:19:02.184Z,10.80
2023-04-30T22:24:05.066Z,10.71
2023-04-30T22:29:07.279Z,10.56
2023-04-30T22:34:09.492Z,10.45
2023-04-30T22:39:12.186Z,10.37
2023-04-30T22:44:16.079Z,10.38
2023-04-30T22:49:27.527Z,10.36
2023-04-30T22:54:34.597Z,10.33
2023-04-30T22:59:36.794Z,10.21
2023-04-30T23:04:39.135Z,10.12
2023-04-30T23:09:41.616Z,10.05
2023-04-30T23:14:43.736Z,10.00
2023-04-30T23:19:45.898Z,9.84
2023-04-30T23:24:48.151Z,9.86
2023-04-30T23:29:50.788Z,9.68
2023-04-30T23:34:53.023Z,9.82
2023-04-30T23:39:55.665Z,9.74
2023-04-30T23:44:57.957Z,9.90
2023-04-30T23:50:00.150Z,9.87
2023-04-30T23:55:02.991Z,9.84
